createdAt,value
2022-08-08T00:00:53.876Z,25.25
2022-08-08T00:03:20.004Z,24.17
2022-08-08T00:06:09.310Z,26.98
2022-08-08T00:08:52.929Z,25.48
2022-08-08T00:11:46.176Z,25.73
2022-08-08T00:14:59.484Z,24.58
2022-08-08T00:17:58.497Z,24.10
2022-08-08T00:20:42.798Z,23.35
2022-08-08T00:23:28.357Z,23.88
2022-08-08T00:26:29.042Z,25.52
2022-08-08T00:29:12.666Z,25.75
2022-08-08T00:32:07.778Z,26.73
2022-08-08T00:35:21.936Z,24.90
2022-08-08T00:38:32.483Z,26.75
2022-08-08T00:42:08.146Z,26.27
2022-08-08T00:45:21.590Z,27.00
2022-08-08T00:48:39.047Z,28.95
2022-08-08T00:52:08.669Z,30.13
2022-08-08T00:59:04.680Z,30.23
2022-08-08T01:01:55.658Z,28.92
2022-08-08T01:05:28.923Z,34.38
2022-08-08T01:08:50.159Z,31.42
2022-08-08T01:12:06.328Z,34.58
2022-08-08T01:15:44.406Z,28.77
2022-08-08T01:18:57.269Z,31.48
2022-08-08T01:22:15.597Z,32.38
2022-08-08T01:25:40.763Z,23.95
2022-08-08T01:28:47.569Z,24.25
2022-08-08T01:32:13.161Z,31.90
2022-08-08T01:35:29.716Z,30.73
2022-08-08T01:38:42.440Z,28.85
2022-08-08T01:41:34.434Z,26.17
2022-08-08T01:44:50.341Z,26.55
2022-08-08T01:48:16.293Z,32.17
2022-08-08T01:51:06.191Z,30.52
2022-08-08T01:55:25.695Z,27.98
2022-08-08T01:58:10.754Z,27.23
2022-08-08T02:00:37.512Z,26.38
2022-08-08T02:03:50.682Z,29.00
2022-08-08T02:06:48.123Z,25.65
2022-08-08T02:10:03.983Z,23.70
2022-08-08T02:15:56.932Z,23.85
2022-08-08T02:18:42.667Z,24.20
2022-08-08T02:21:39.796Z,23.25
2022-08-08T02:24:23.714Z,25.50
2022-08-08T02:27:10.472Z,27.45
2022-08-08T02:30:06.981Z,24.98
2022-08-08T02:33:17.738Z,24.42
2022-08-08T02:36:16.357Z,22.95
2022-08-08T02:39:40.382Z,25.05
2022-08-08T02:42:41.995Z,27.08
2022-08-08T02:45:51.573Z,27.08
2022-08-08T02:48:57.799Z,21.10
2022-08-08T02:52:32.501Z,22.75
2022-08-08T02:55:19.747Z,26.50
2022-08-08T02:58:26.756Z,26.17
2022-08-08T03:01:40.024Z,26.63
2022-08-08T03:05:13.536Z,24.20
2022-08-08T03:08:14.295Z,29.42
2022-08-08T03:11:47.404Z,29.95
2022-08-08T03:15:57.499Z,24.60
2022-08-08T03:17:39.199Z,30.60
2022-08-08T03:20:14.808Z,29.80
2022-08-08T03:22:56.759Z,30.65
2022-08-08T03:25:37.819Z,33.05
2022-08-08T03:28:19.307Z,32.60
2022-08-08T03:31:18.160Z,27.38
2022-08-08T03:33:55.619Z,26.83
2022-08-08T03:36:40.503Z,31.33
2022-08-08T03:39:19.150Z,33.13
2022-08-08T03:42:11.892Z,32.47
2022-08-08T03:44:52.176Z,35.03
2022-08-08T03:47:45.355Z,35.47
2022-08-08T03:50:26.721Z,35.78
2022-08-08T03:53:04.852Z,30.75
2022-08-08T03:55:56.096Z,32.28
2022-08-08T03:58:37.541Z,34.38
2022-08-08T04:01:26.402Z,31.27
2022-08-08T04:04:31.212Z,30.08
2022-08-08T04:07:06.225Z,28.52
2022-08-08T04:10:03.202Z,31.17
2022-08-08T04:12:39.962Z,32.47
2022-08-08T04:15:15.454Z,26.98
2022-08-08T04:17:58.942Z,23.25
2022-08-08T04:20:34.162Z,22.48
2022-08-08T04:23:11.855Z,22.75
2022-08-08T04:25:49.732Z,22.85
2022-08-08T04:28:40.232Z,23.83
2022-08-08T04:31:56.828Z,22.65
2022-08-08T04:34:10.507Z,20.67
2022-08-08T04:36:45.792Z,20.58
2022-08-08T04:40:04.049Z,20.08
2022-08-08T04:42:15.621Z,24.52
2022-08-08T04:45:02.393Z,23.98
2022-08-08T04:47:46.153Z,22.50
2022-08-08T04:50:32.578Z,22.60
2022-08-08T04:53:52.641Z,23.35
2022-08-08T04:56:09.994Z,24.15
2022-08-08T04:58:44.490Z,22.85
2022-08-08T05:01:25.429Z,22.70
2022-08-08T05:04:12.805Z,21.13
2022-08-08T05:06:50.604Z,21.13
2022-08-08T05:09:29.481Z,22.30
2022-08-08T05:12:20.705Z,20.90
2022-08-08T05:14:57.157Z,21.20
2022-08-08T05:17:53.358Z,21.60
2022-08-08T05:20:31.821Z,20.58
2022-08-08T05:23:08.117Z,20.35
2022-08-08T05:25:44.283Z,20.35
2022-08-08T05:28:55.941Z,20.65
2022-08-08T05:31:30.793Z,19.85
2022-08-08T05:34:21.770Z,19.33
2022-08-08T05:37:01.443Z,20.50
2022-08-08T05:39:37.505Z,20.45
2022-08-08T05:42:41.338Z,21.42
2022-08-08T05:45:25.263Z,20.42
2022-08-08T05:51:12.893Z,20.90
2022-08-08T05:54:25.356Z,21.05
2022-08-08T05:56:49.376Z,20.92
2022-08-08T05:59:53.520Z,20.08
2022-08-08T06:02:47.889Z,19.88
2022-08-08T06:05:35.234Z,20.05
2022-08-08T06:08:33.427Z,19.33
2022-08-08T06:11:16.480Z,20.45
2022-08-08T06:13:54.272Z,19.83
2022-08-08T06:16:33.538Z,19.60
2022-08-08T06:19:33.336Z,20.27
2022-08-08T06:25:10.394Z,19.42
2022-08-08T06:27:51.190Z,18.15
2022-08-08T06:30:29.043Z,18.23
2022-08-08T06:33:09.369Z,18.30
2022-08-08T06:36:07.242Z,18.70
2022-08-08T06:38:45.423Z,18.25
2022-08-08T06:41:23.034Z,18.75
2022-08-08T06:44:04.528Z,18.90
2022-08-08T06:46:44.123Z,17.88
2022-08-08T06:49:20.051Z,17.52
2022-08-08T06:52:15.919Z,16.83
2022-08-08T06:54:52.423Z,17.00
2022-08-08T06:57:54.743Z,18.55
2022-08-08T07:00:30.548Z,17.67
2022-08-08T07:03:30.690Z,17.27
2022-08-08T07:06:08.068Z,18.33
2022-08-08T07:08:49.426Z,17.98
2022-08-08T07:11:50.824Z,17.02
2022-08-08T07:17:56.592Z,17.23
2022-08-08T07:20:35.001Z,17.08
2022-08-08T07:23:27.528Z,18.00
2022-08-08T07:26:29.004Z,16.73
2022-08-08T07:29:20.649Z,18.40
2022-08-08T07:32:09.004Z,17.40
2022-08-08T07:34:48.463Z,18.33
2022-08-08T07:37:55.632Z,16.92
2022-08-08T07:40:40.432Z,18.05
2022-08-08T07:43:35.261Z,18.30
2022-08-08T07:46:29.112Z,18.35
2022-08-08T07:49:17.972Z,17.17
2022-08-08T07:51:53.713Z,19.35
2022-08-08T07:54:38.977Z,19.20
2022-08-08T07:57:23.845Z,18.45
2022-08-08T08:00:16.420Z,18.33
2022-08-08T08:03:23.628Z,18.52
2022-08-08T08:06:10.018Z,18.85
2022-08-08T08:08:58.023Z,18.65
2022-08-08T08:11:51.613Z,17.98
2022-08-08T08:14:43.549Z,19.05
2022-08-08T08:23:02.598Z,19.30
2022-08-08T08:25:42.249Z,18.90
2022-08-08T08:28:23.603Z,18.95
2022-08-08T08:31:06.428Z,19.05
2022-08-08T08:33:43.641Z,18.45
2022-08-08T08:36:43.236Z,19.65
2022-08-08T08:39:59.586Z,19.52
2022-08-08T08:42:31.331Z,19.23
2022-08-08T08:45:22.733Z,18.35
2022-08-08T08:48:04.923Z,17.67
2022-08-08T08:50:46.151Z,17.92
2022-08-08T08:53:55.168Z,18.10
2022-08-08T08:56:24.431Z,18.85
2022-08-08T08:59:05.979Z,18.90
2022-08-08T09:01:49.198Z,18.52
2022-08-08T09:04:39.558Z,18.63
2022-08-08T09:07:39.327Z,18.05
2022-08-08T09:10:23.041Z,18.02
2022-08-08T09:13:09.097Z,18.50
2022-08-08T09:15:46.259Z,18.50
2022-08-08T09:18:22.574Z,18.17
2022-08-08T09:21:57.185Z,18.33
2022-08-08T09:23:55.009Z,18.80
2022-08-08T09:26:42.118Z,18.45
2022-08-08T09:29:28.629Z,20.33
2022-08-08T09:35:08.204Z,25.10
2022-08-08T09:37:58.286Z,24.73
2022-08-08T09:40:47.865Z,26.17
2022-08-08T09:43:40.641Z,25.98
2022-08-08T09:46:30.694Z,25.08
2022-08-08T09:49:40.956Z,25.77
2022-08-08T09:52:08.560Z,25.23
2022-08-08T09:57:46.482Z,25.67
2022-08-08T10:00:53.032Z,25.27
2022-08-08T10:03:20.282Z,24.73
2022-08-08T10:05:54.487Z,24.95
2022-08-08T10:08:29.169Z,24.35
2022-08-08T10:11:12.036Z,25.02
2022-08-08T10:14:00.858Z,24.05
2022-08-08T10:16:44.851Z,25.83
2022-08-08T10:19:45.912Z,24.05
2022-08-08T10:22:28.055Z,24.15
2022-08-08T10:25:15.832Z,24.42
2022-08-08T10:27:57.841Z,27.02
2022-08-08T10:30:57.044Z,25.27
2022-08-08T10:33:38.224Z,24.92
2022-08-08T10:36:33.429Z,24.67
2022-08-08T10:42:14.913Z,26.55
2022-08-08T10:44:51.504Z,26.90
2022-08-08T10:47:43.294Z,25.85
2022-08-08T10:50:23.578Z,26.90
2022-08-08T10:53:07.820Z,26.48
2022-08-08T10:55:50.384Z,26.55
2022-08-08T10:58:33.076Z,28.77
2022-08-08T11:01:13.508Z,27.08
2022-08-08T11:04:01.368Z,25.92
2022-08-08T11:06:41.974Z,26.45
2022-08-08T11:09:25.252Z,26.02
2022-08-08T11:12:13.494Z,25.77
2022-08-08T11:14:59.374Z,25.98
2022-08-08T11:17:58.526Z,26.88
2022-08-08T11:20:36.249Z,26.88
2022-08-08T11:23:10.645Z,25.52
2022-08-08T11:25:52.538Z,27.35
2022-08-08T11:28:30.717Z,28.08
2022-08-08T11:31:08.688Z,27.63
2022-08-08T11:33:52.759Z,28.70
2022-08-08T11:36:36.734Z,29.13
2022-08-08T11:42:03.075Z,28.00
2022-08-08T11:44:44.543Z,27.67
2022-08-08T11:47:18.617Z,27.27
2022-08-08T11:49:57.401Z,29.83
2022-08-08T11:52:33.504Z,28.30
2022-08-08T11:55:17.438Z,28.52
2022-08-08T11:58:14.220Z,28.70
2022-08-08T12:00:51.035Z,31.08
2022-08-08T12:03:36.675Z,30.88
2022-08-08T12:06:20.118Z,31.27
2022-08-08T12:08:53.407Z,31.08
2022-08-08T12:14:29.217Z,30.55
2022-08-08T12:17:06.475Z,32.88
2022-08-08T12:19:51.017Z,32.72
2022-08-08T12:22:32.734Z,31.25
2022-08-08T12:25:10.771Z,32.13
2022-08-08T12:27:45.759Z,32.58
2022-08-08T12:30:34.951Z,31.60
2022-08-08T12:33:08.513Z,32.00
2022-08-08T12:35:52.864Z,34.60
2022-08-08T12:38:30.435Z,32.00
2022-08-08T12:41:35.188Z,33.45
2022-08-08T12:44:32.196Z,34.20
2022-08-08T12:47:13.064Z,33.25
2022-08-08T12:49:58.295Z,31.95
2022-08-08T12:52:41.406Z,31.33
2022-08-08T12:55:31.976Z,31.35
2022-08-08T12:58:15.781Z,32.33
2022-08-08T13:00:53.731Z,33.25
2022-08-08T13:03:40.216Z,32.13
2022-08-08T13:06:20.756Z,32.10
2022-08-08T13:08:57.869Z,33.50
2022-08-08T13:12:24.478Z,32.72
2022-08-08T13:14:53.394Z,32.97
2022-08-08T13:18:08.748Z,31.35
2022-08-08T13:20:28.428Z,31.90
2022-08-08T13:23:35.942Z,32.47
2022-08-08T13:26:04.136Z,32.40
2022-08-08T13:28:49.030Z,33.33
2022-08-08T13:31:26.332Z,31.83
2022-08-08T13:34:01.304Z,31.35
2022-08-08T13:36:51.688Z,28.00
2022-08-08T13:39:28.261Z,28.52
2022-08-08T13:42:05.276Z,28.08
2022-08-08T13:44:54.882Z,28.55
2022-08-08T13:47:31.756Z,26.70
2022-08-08T13:50:39.608Z,27.38
2022-08-08T13:53:25.089Z,25.67
2022-08-08T13:56:10.790Z,24.73
2022-08-08T13:58:57.222Z,25.25
2022-08-08T14:01:52.784Z,23.40
2022-08-08T14:04:31.206Z,22.55
2022-08-08T14:07:10.159Z,24.02
2022-08-08T14:10:05.346Z,23.42
2022-08-08T14:12:45.710Z,22.08
2022-08-08T14:15:31.270Z,21.58
2022-08-08T14:18:36.089Z,20.95
2022-08-08T14:21:15.125Z,21.08
2022-08-08T14:24:07.631Z,20.45
2022-08-08T14:26:59.296Z,20.42
2022-08-08T14:29:39.540Z,19.02
2022-08-08T14:32:21.221Z,18.40
2022-08-08T14:35:08.960Z,18.15
2022-08-08T14:38:00.980Z,18.35
2022-08-08T14:40:45.595Z,18.50
2022-08-08T14:44:02.151Z,19.40
2022-08-08T14:46:34.153Z,18.77
2022-08-08T14:49:31.815Z,18.55
2022-08-08T14:52:15.187Z,18.40
2022-08-08T14:55:02.502Z,16.98
2022-08-08T14:58:00.845Z,17.27
2022-08-08T15:00:35.188Z,17.40
2022-08-08T15:03:14.538Z,18.05
2022-08-08T15:05:55.639Z,19.60
2022-08-08T15:08:38.110Z,18.25
2022-08-08T15:11:20.581Z,18.83
2022-08-08T15:14:01.160Z,18.58
2022-08-08T15:16:39.968Z,18.75
2022-08-08T15:19:17.458Z,19.25
2022-08-08T15:21:58.433Z,18.70
2022-08-08T15:24:33.757Z,19.27
2022-08-08T15:27:58.450Z,20.05
2022-08-08T15:30:04.874Z,19.02
2022-08-08T15:32:45.421Z,19.73
2022-08-08T15:35:24.101Z,19.45
2022-08-08T15:38:00.853Z,20.48
2022-08-08T15:40:36.118Z,19.77
2022-08-08T15:43:35.218Z,20.15
2022-08-08T15:46:05.169Z,19.65
2022-08-08T15:48:53.859Z,20.17
2022-08-08T15:51:33.401Z,20.55
2022-08-08T15:54:13.645Z,19.95
2022-08-08T15:56:56.424Z,18.75
2022-08-08T16:00:06.177Z,19.80
2022-08-08T16:02:31.565Z,19.98
2022-08-08T16:05:14.074Z,19.55
2022-08-08T16:07:52.476Z,20.58
2022-08-08T16:13:09.457Z,20.13
2022-08-08T16:13:32.035Z,20.35
2022-08-08T16:16:18.565Z,20.55
2022-08-08T16:18:57.649Z,22.65
2022-08-08T16:21:40.460Z,21.92
2022-08-08T16:24:28.305Z,23.52
2022-08-08T16:27:09.555Z,24.45
2022-08-08T16:30:13.562Z,27.00
2022-08-08T16:32:49.741Z,26.77
2022-08-08T16:35:27.963Z,25.33
2022-08-08T16:38:10.943Z,27.67
2022-08-08T16:40:47.567Z,27.02
2022-08-08T16:43:23.824Z,26.67
2022-08-08T16:46:44.082Z,27.65
2022-08-08T16:48:52.570Z,28.30
2022-08-08T16:55:01.829Z,25.10
2022-08-08T16:55:01.838Z,28.52
2022-08-08T16:57:43.598Z,22.70
2022-08-08T17:00:26.339Z,20.90
2022-08-08T17:03:02.406Z,18.60
2022-08-08T17:08:25.198Z,17.10
2022-08-08T17:11:10.430Z,17.52
2022-08-08T17:13:50.039Z,17.98
2022-08-08T17:16:25.530Z,17.92
2022-08-08T17:19:03.756Z,18.50
2022-08-08T17:21:43.535Z,16.98
2022-08-08T17:24:27.937Z,17.58
2022-08-08T17:27:27.227Z,18.00
2022-08-08T17:30:08.495Z,18.27
2022-08-08T17:34:36.799Z,18.02
2022-08-08T17:35:54.662Z,18.90
2022-08-08T17:38:31.956Z,19.10
2022-08-08T17:41:07.855Z,18.95
2022-08-08T17:44:01.012Z,18.48
2022-08-08T17:46:41.364Z,17.70
2022-08-08T17:49:23.991Z,18.17
2022-08-08T17:51:59.804Z,18.13
2022-08-08T17:54:34.168Z,16.77
2022-08-08T17:57:11.204Z,16.95
2022-08-08T17:59:51.832Z,16.85
2022-08-08T18:02:33.052Z,16.83
2022-08-08T18:05:14.657Z,16.17
2022-08-08T18:08:03.253Z,16.33
2022-08-08T18:10:41.407Z,16.65
2022-08-08T18:13:17.997Z,15.57
2022-08-08T18:16:04.184Z,16.90
2022-08-08T18:18:42.806Z,16.67
2022-08-08T18:21:34.743Z,16.40
2022-08-08T18:24:18.874Z,17.85
2022-08-08T18:29:42.791Z,18.05
2022-08-08T18:32:18.750Z,17.23
2022-08-08T18:34:54.926Z,17.98
2022-08-08T18:37:43.384Z,17.48
2022-08-08T18:40:34.879Z,18.02
2022-08-08T18:43:16.267Z,17.55
2022-08-08T18:46:52.775Z,18.30
2022-08-08T18:48:46.595Z,17.73
2022-08-08T18:51:48.838Z,18.88
2022-08-08T18:54:27.287Z,17.80
2022-08-08T18:57:05.072Z,17.30
2022-08-08T18:59:43.307Z,16.35
2022-08-08T19:02:28.557Z,17.23
2022-08-08T19:05:05.389Z,17.17
2022-08-08T19:07:39.403Z,17.20
2022-08-08T19:10:26.672Z,17.13
2022-08-08T19:13:00.922Z,17.83
2022-08-08T19:15:34.691Z,17.13
2022-08-08T19:18:33.363Z,17.33
2022-08-08T19:21:29.217Z,17.02
2022-08-08T19:24:05.616Z,17.50
2022-08-08T19:26:40.583Z,18.23
2022-08-08T19:29:24.726Z,18.57
2022-08-08T19:31:59.348Z,18.08
2022-08-08T19:34:38.610Z,16.58
2022-08-08T19:37:17.699Z,17.67
2022-08-08T19:40:16.243Z,17.83
2022-08-08T19:43:11.667Z,18.07
2022-08-08T19:46:00.041Z,17.73
2022-08-08T19:48:35.910Z,17.90
2022-08-08T19:51:13.995Z,17.73
2022-08-08T19:53:54.093Z,18.87
2022-08-08T19:56:40.189Z,18.03
2022-08-08T19:59:15.354Z,18.47
2022-08-08T20:02:03.430Z,18.00
2022-08-08T20:04:39.114Z,17.50
2022-08-08T20:10:02.332Z,19.13
2022-08-08T20:12:36.036Z,18.03
2022-08-08T20:15:17.132Z,17.77
2022-08-08T20:17:52.388Z,17.63
2022-08-08T20:20:26.438Z,18.53
2022-08-08T20:23:04.236Z,17.63
2022-08-08T20:25:47.958Z,16.97
2022-08-08T20:28:29.635Z,17.07
2022-08-08T20:31:06.564Z,17.63
2022-08-08T20:36:31.071Z,17.60
2022-08-08T20:39:05.595Z,18.13
2022-08-08T20:41:43.322Z,16.93
2022-08-08T20:44:25.197Z,18.10
2022-08-08T20:46:59.338Z,18.03
2022-08-08T20:49:40.205Z,18.10
2022-08-08T20:52:20.839Z,17.98
2022-08-08T20:57:47.747Z,18.83
2022-08-08T21:00:25.954Z,18.13
2022-08-08T21:03:00.199Z,18.70
2022-08-08T21:05:49.156Z,18.67
2022-08-08T21:08:37.396Z,18.93
2022-08-08T21:11:51.173Z,18.67
2022-08-08T21:14:33.799Z,18.10
2022-08-08T21:17:09.291Z,18.07
2022-08-08T21:19:45.912Z,18.58
2022-08-08T21:22:21.100Z,18.53
2022-08-08T21:25:02.920Z,19.20
2022-08-08T21:28:06.188Z,18.73
2022-08-08T21:30:34.110Z,19.02
2022-08-08T21:33:10.829Z,19.20
2022-08-08T21:36:17.885Z,19.45
2022-08-08T21:38:40.179Z,19.67
2022-08-08T21:41:28.979Z,19.35
2022-08-08T21:44:24.812Z,19.67
2022-08-08T21:48:07.002Z,18.50
2022-08-08T21:49:54.475Z,18.80
2022-08-08T21:54:22.739Z,19.10
2022-08-08T21:56:18.129Z,19.77
2022-08-08T21:58:15.684Z,18.88
2022-08-08T22:00:52.129Z,19.57
2022-08-08T22:03:31.339Z,18.80
2022-08-08T22:06:08.227Z,18.93
2022-08-08T22:09:14.029Z,18.77
2022-08-08T22:12:02.947Z,19.80
2022-08-08T22:14:42.785Z,18.90
2022-08-08T22:17:21.802Z,19.03
2022-08-08T22:20:11.478Z,19.55
2022-08-08T22:22:49.990Z,19.07
2022-08-08T22:25:26.258Z,19.20
2022-08-08T22:29:04.279Z,19.33
2022-08-08T22:31:09.698Z,19.23
2022-08-08T22:34:13.911Z,19.45
2022-08-08T22:36:43.757Z,20.15
2022-08-08T22:39:19.513Z,18.85
2022-08-08T22:41:54.005Z,19.75
2022-08-08T22:44:28.654Z,19.13
2022-08-08T22:47:17.589Z,19.25
2022-08-08T22:49:54.082Z,18.27
2022-08-08T22:52:36.824Z,17.90
2022-08-08T22:55:20.456Z,17.58
2022-08-08T22:57:57.298Z,18.70
2022-08-08T23:00:31.703Z,18.38
2022-08-08T23:03:06.029Z,18.20
2022-08-08T23:05:49.487Z,16.98
2022-08-08T23:08:35.467Z,17.60
2022-08-08T23:11:13.082Z,18.00
2022-08-08T23:13:53.565Z,16.23
2022-08-08T23:16:40.983Z,16.35
2022-08-08T23:19:17.645Z,16.33
2022-08-08T23:21:51.743Z,15.85
2022-08-08T23:24:36.132Z,16.55
2022-08-08T23:27:37.728Z,16.02
2022-08-08T23:30:09.198Z,15.95
2022-08-08T23:32:44.159Z,15.13
2022-08-08T23:35:19.039Z,15.30
2022-08-08T23:38:03.062Z,15.20
2022-08-08T23:40:39.939Z,15.60
2022-08-08T23:43:16.682Z,14.63
2022-08-08T23:49:00.668Z,14.18
2022-08-08T23:49:05.053Z,15.32
2022-08-08T23:52:03.594Z,13.80
2022-08-08T23:54:53.450Z,14.70
2022-08-08T23:57:39.391Z,14.25
